Huvudsida
METAR-TAF:

METAR-TAF

Flygplatser :

Växjö, Sverige

Småland Airport

latitud: 56-51N, longitud: 014-50E, höjd: 199 m

Aktuellt väderrapport

Denna rapport gjordes för 34 minuter sedan, klockan 10:20 UTC
Vind 5 kt från sydväst
Temperatur 0°C
Fuktighet 100%
Tryck 986 hPa
Sikt 10 km eller mer
Brutna moln på en höjd av 500 ft

METAR: ESMX 171020Z 23005KT 9999 BKN005 00/M00 Q0986

Tid: 11:54 (10:54 UTC)

Väderprognos

Denna rapport gjordes för 2 timmar och 24 minuter sedan, klockan 08:30 UTC
Prognos gäller från 17 kl. 09 UTC till 17 kl. 18 UTC
Vind 5 kt från väst/sydväst
Sikt 10 km eller mer
Spridda moln på en höjd av 1000 ft
Brutna moln på en höjd av 1800 ft
Temporärt
från 17 kl. 09 UTC till 17 kl. 15 UTC
Sikt: 4000 m
Brutna moln på en höjd av 400 ft
fuktdis

TAF: ESMX 170830Z 1709/1718 24005KT 9999 SCT010 BKN018 TEMPO 1709/1715 4000 BR BKN004

Aktuella väderrapporter och prognoser från 4000 flygplatser (METAR- och TAF-rapporter).

De tillgängliga stationerna syns som gula och röda prickar på kartan.

För musen över prickarna för att se namnen på stationerna.

Klicka sedan för att få väderrapporter och prognoser.

För att ändra kartan: Klicka på de gröna knapparna med ett svart kors på för att zooma in; den gröna knappen med ett streck på för att zooma ut; eller på de gröna pilarna för angränsande kartor.


METAR-TAF: